sensor_id;sensor_type;location;lat;lon;timestamp;P1;durP1;ratioP1;P2;durP2;ratioP2
67712;SDS011;54503;55.784;49.138;2022-07-12T00:02:31;19.55;;;10.32;;
67712;SDS011;54503;55.784;49.138;2022-07-12T00:07:51;18.67;;;9.90;;
67712;SDS011;54503;55.784;49.138;2022-07-12T00:12:56;18.95;;;10.05;;
67712;SDS011;54503;55.784;49.138;2022-07-12T00:18:02;17.48;;;10.18;;
67712;SDS011;54503;55.784;49.138;2022-07-12T00:23:21;20.63;;;9.57;;
67712;SDS011;54503;55.784;49.138;2022-07-12T00:28:41;20.70;;;9.30;;
67712;SDS011;54503;55.784;49.138;2022-07-12T00:34:00;20.43;;;9.90;;
67712;SDS011;54503;55.784;49.138;2022-07-12T00:39:19;19.10;;;10.00;;
67712;SDS011;54503;55.784;49.138;2022-07-12T00:44:38;15.60;;;9.70;;
67712;SDS011;54503;55.784;49.138;2022-07-12T00:55:31;14.13;;;9.40;;
67712;SDS011;54503;55.784;49.138;2022-07-12T01:00:37;23.23;;;9.40;;
67712;SDS011;54503;55.784;49.138;2022-07-12T01:05:42;16.90;;;8.90;;
67712;SDS011;54503;55.784;49.138;2022-07-12T01:11:01;13.90;;;9.13;;
67712;SDS011;54503;55.784;49.138;2022-07-12T01:16:20;20.33;;;9.10;;
67712;SDS011;54503;55.784;49.138;2022-07-12T01:21:39;22.90;;;9.90;;
67712;SDS011;54503;55.784;49.138;2022-07-12T01:26:46;20.85;;;9.38;;
67712;SDS011;54503;55.784;49.138;2022-07-12T01:32:07;16.07;;;9.10;;
67712;SDS011;54503;55.784;49.138;2022-07-12T01:43:11;19.73;;;9.58;;
67712;SDS011;54503;55.784;49.138;2022-07-12T01:48:30;15.43;;;9.67;;
67712;SDS011;54503;55.784;49.138;2022-07-12T01:53:49;17.43;;;9.07;;
67712;SDS011;54503;55.784;49.138;2022-07-12T01:58:54;13.20;;;9.35;;
67712;SDS011;54503;55.784;49.138;2022-07-12T02:09:39;16.75;;;9.15;;
67712;SDS011;54503;55.784;49.138;2022-07-12T02:14:58;13.83;;;9.00;;
67712;SDS011;54503;55.784;49.138;2022-07-12T02:20:17;18.57;;;9.25;;
67712;SDS011;54503;55.784;49.138;2022-07-12T02:25:23;18.95;;;9.25;;
67712;SDS011;54503;55.784;49.138;2022-07-12T02:30:28;16.63;;;9.63;;
67712;SDS011;54503;55.784;49.138;2022-07-12T02:35:33;16.37;;;9.38;;
67712;SDS011;54503;55.784;49.138;2022-07-12T02:40:52;19.48;;;9.18;;
67712;SDS011;54503;55.784;49.138;2022-07-12T02:46:11;19.40;;;9.10;;
67712;SDS011;54503;55.784;49.138;2022-07-12T02:51:31;15.37;;;9.07;;
67712;SDS011;54503;55.784;49.138;2022-07-12T02:56:37;17.10;;;9.40;;
67712;SDS011;54503;55.784;49.138;2022-07-12T03:01:56;17.60;;;9.00;;
67712;SDS011;54503;55.784;49.138;2022-07-12T03:07:02;18.30;;;8.90;;
67712;SDS011;54503;55.784;49.138;2022-07-12T03:12:21;17.48;;;8.90;;
67712;SDS011;54503;55.784;49.138;2022-07-12T03:17:26;17.62;;;8.90;;
67712;SDS011;54503;55.784;49.138;2022-07-12T03:22:45;18.47;;;9.00;;
67712;SDS011;54503;55.784;49.138;2022-07-12T03:28:04;16.80;;;8.23;;
67712;SDS011;54503;55.784;49.138;2022-07-12T03:33:23;12.25;;;8.65;;
67712;SDS011;54503;55.784;49.138;2022-07-12T03:38:43;16.67;;;8.90;;
67712;SDS011;54503;55.784;49.138;2022-07-12T03:43:48;13.75;;;8.28;;
67712;SDS011;54503;55.784;49.138;2022-07-12T03:49:07;12.98;;;8.68;;
67712;SDS011;54503;55.784;49.138;2022-07-12T03:54:26;14.43;;;8.93;;
67712;SDS011;54503;55.784;49.138;2022-07-12T03:59:31;14.90;;;8.50;;
67712;SDS011;54503;55.784;49.138;2022-07-12T04:04:51;13.90;;;8.30;;
67712;SDS011;54503;55.784;49.138;2022-07-12T04:09:56;14.03;;;8.73;;
67712;SDS011;54503;55.784;49.138;2022-07-12T04:15:03;15.32;;;8.88;;
67712;SDS011;54503;55.784;49.138;2022-07-12T04:20:10;22.43;;;9.07;;
67712;SDS011;54503;55.784;49.138;2022-07-12T04:25:19;24.32;;;8.73;;
67712;SDS011;54503;55.784;49.138;2022-07-12T04:30:38;24.10;;;8.98;;
67712;SDS011;54503;55.784;49.138;2022-07-12T04:35:53;18.43;;;8.40;;
67712;SDS011;54503;55.784;49.138;2022-07-12T04:41:12;16.90;;;8.50;;
67712;SDS011;54503;55.784;49.138;2022-07-12T04:46:18;14.55;;;8.60;;
67712;SDS011;54503;55.784;49.138;2022-07-12T04:51:37;12.78;;;8.28;;
67712;SDS011;54503;55.784;49.138;2022-07-12T04:56:43;15.00;;;8.53;;
67712;SDS011;54503;55.784;49.138;2022-07-12T05:02:02;16.60;;;8.50;;
67712;SDS011;54503;55.784;49.138;2022-07-12T05:07:07;94.75;;;15.28;;
67712;SDS011;54503;55.784;49.138;2022-07-12T05:12:27;225.50;;;25.37;;
67712;SDS011;54503;55.784;49.138;2022-07-12T05:17:46;25.93;;;9.83;;
67712;SDS011;54503;55.784;49.138;2022-07-12T05:22:52;20.55;;;8.80;;
67712;SDS011;54503;55.784;49.138;2022-07-12T05:27:56;22.67;;;8.75;;
67712;SDS011;54503;55.784;49.138;2022-07-12T05:33:03;20.17;;;9.40;;
67712;SDS011;54503;55.784;49.138;2022-07-12T05:38:34;16.43;;;8.47;;
67712;SDS011;54503;55.784;49.138;2022-07-12T05:43:40;12.00;;;8.70;;
67712;SDS011;54503;55.784;49.138;2022-07-12T05:48:46;13.58;;;8.33;;
67712;SDS011;54503;55.784;49.138;2022-07-12T05:54:32;17.27;;;9.10;;
67712;SDS011;54503;55.784;49.138;2022-07-12T05:59:37;24.50;;;8.77;;
67712;SDS011;54503;55.784;49.138;2022-07-12T06:04:42;15.40;;;8.50;;
67712;SDS011;54503;55.784;49.138;2022-07-12T06:10:20;12.80;;;7.50;;
67712;SDS011;54503;55.784;49.138;2022-07-12T06:15:25;13.40;;;8.30;;
67712;SDS011;54503;55.784;49.138;2022-07-12T06:20:31;16.57;;;7.95;;
67712;SDS011;54503;55.784;49.138;2022-07-12T06:26:00;48.87;;;10.90;;
67712;SDS011;54503;55.784;49.138;2022-07-12T06:31:05;17.47;;;8.43;;
67712;SDS011;54503;55.784;49.138;2022-07-12T06:36:24;18.02;;;11.18;;
67712;SDS011;54503;55.784;49.138;2022-07-12T06:41:43;17.77;;;8.65;;
67712;SDS011;54503;55.784;49.138;2022-07-12T06:47:03;24.87;;;8.40;;
67712;SDS011;54503;55.784;49.138;2022-07-12T06:52:22;13.32;;;9.30;;
67712;SDS011;54503;55.784;49.138;2022-07-12T06:57:28;14.58;;;9.18;;
67712;SDS011;54503;55.784;49.138;2022-07-12T07:02:34;13.27;;;8.20;;
67712;SDS011;54503;55.784;49.138;2022-07-12T07:07:52;18.53;;;8.87;;
67712;SDS011;54503;55.784;49.138;2022-07-12T07:12:58;15.70;;;8.80;;
67712;SDS011;54503;55.784;49.138;2022-07-12T07:18:04;17.05;;;8.83;;
67712;SDS011;54503;55.784;49.138;2022-07-12T07:23:22;15.55;;;7.55;;
67712;SDS011;54503;55.784;49.138;2022-07-12T07:28:27;25.70;;;9.55;;
67712;SDS011;54503;55.784;49.138;2022-07-12T07:33:55;25.95;;;13.80;;
67712;SDS011;54503;55.784;49.138;2022-07-12T07:39:00;16.30;;;9.70;;
67712;SDS011;54503;55.784;49.138;2022-07-12T07:44:19;21.40;;;11.25;;
67712;SDS011;54503;55.784;49.138;2022-07-12T07:49:39;20.72;;;9.75;;
67712;SDS011;54503;55.784;49.138;2022-07-12T07:54:58;27.27;;;16.63;;
67712;SDS011;54503;55.784;49.138;2022-07-12T08:00:17;28.87;;;12.25;;
67712;SDS011;54503;55.784;49.138;2022-07-12T08:05:23;17.85;;;10.80;;
67712;SDS011;54503;55.784;49.138;2022-07-12T08:10:43;14.50;;;8.73;;
67712;SDS011;54503;55.784;49.138;2022-07-12T08:15:48;18.47;;;8.37;;
67712;SDS011;54503;55.784;49.138;2022-07-12T08:21:07;16.80;;;9.30;;
67712;SDS011;54503;55.784;49.138;2022-07-12T08:26:12;14.55;;;8.63;;
67712;SDS011;54503;55.784;49.138;2022-07-12T08:31:31;17.65;;;8.75;;
67712;SDS011;54503;55.784;49.138;2022-07-12T08:36:36;24.30;;;14.10;;
67712;SDS011;54503;55.784;49.138;2022-07-12T08:41:42;19.80;;;14.50;;
67712;SDS011;54503;55.784;49.138;2022-07-12T08:47:01;12.25;;;7.80;;
67712;SDS011;54503;55.784;49.138;2022-07-12T08:57:48;16.27;;;7.58;;
67712;SDS011;54503;55.784;49.138;2022-07-12T09:03:07;11.97;;;6.97;;
67712;SDS011;54503;55.784;49.138;2022-07-12T09:19:13;24.00;;;7.72;;
67712;SDS011;54503;55.784;49.138;2022-07-12T09:24:20;12.20;;;8.17;;
67712;SDS011;54503;55.784;49.138;2022-07-12T09:29:31;18.75;;;8.50;;
67712;SDS011;54503;55.784;49.138;2022-07-12T09:35:22;16.95;;;7.70;;
67712;SDS011;54503;55.784;49.138;2022-07-12T09:40:17;16.70;;;8.60;;
67712;SDS011;54503;55.784;49.138;2022-07-12T09:45:23;13.30;;;7.72;;
67712;SDS011;54503;55.784;49.138;2022-07-12T09:50:29;31.77;;;16.33;;
67712;SDS011;54503;55.784;49.138;2022-07-12T09:55:49;17.85;;;8.78;;
67712;SDS011;54503;55.784;49.138;2022-07-12T10:01:09;18.05;;;8.93;;
67712;SDS011;54503;55.784;49.138;2022-07-12T10:06:29;20.17;;;12.57;;
67712;SDS011;54503;55.784;49.138;2022-07-12T10:11:48;17.25;;;11.93;;
67712;SDS011;54503;55.784;49.138;2022-07-12T10:16:54;18.62;;;12.40;;
67712;SDS011;54503;55.784;49.138;2022-07-12T10:27:54;16.40;;;7.90;;
67712;SDS011;54503;55.784;49.138;2022-07-12T10:33:28;13.50;;;8.20;;
67712;SDS011;54503;55.784;49.138;2022-07-12T10:38:34;14.00;;;7.35;;
67712;SDS011;54503;55.784;49.138;2022-07-12T11:00:21;14.33;;;9.00;;
67712;SDS011;54503;55.784;49.138;2022-07-12T11:05:26;11.15;;;7.83;;
67712;SDS011;54503;55.784;49.138;2022-07-12T11:16:10;17.00;;;7.90;;
67712;SDS011;54503;55.784;49.138;2022-07-12T11:21:17;11.12;;;7.05;;
67712;SDS011;54503;55.784;49.138;2022-07-12T11:26:36;21.02;;;8.13;;
67712;SDS011;54503;55.784;49.138;2022-07-12T11:37:34;10.73;;;7.13;;
67712;SDS011;54503;55.784;49.138;2022-07-12T11:42:51;10.60;;;7.20;;
67712;SDS011;54503;55.784;49.138;2022-07-12T11:48:00;13.98;;;8.15;;
67712;SDS011;54503;55.784;49.138;2022-07-12T11:53:11;14.58;;;8.45;;
67712;SDS011;54503;55.784;49.138;2022-07-12T11:58:54;16.87;;;7.90;;
67712;SDS011;54503;55.784;49.138;2022-07-12T12:03:51;12.10;;;7.90;;
67712;SDS011;54503;55.784;49.138;2022-07-12T12:09:10;11.30;;;7.78;;
67712;SDS011;54503;55.784;49.138;2022-07-12T12:14:16;9.40;;;7.55;;
67712;SDS011;54503;55.784;49.138;2022-07-12T12:19:23;19.47;;;8.93;;
67712;SDS011;54503;55.784;49.138;2022-07-12T12:24:56;12.45;;;7.92;;
67712;SDS011;54503;55.784;49.138;2022-07-12T12:30:17;13.18;;;7.87;;
67712;SDS011;54503;55.784;49.138;2022-07-12T12:35:37;12.13;;;8.00;;
67712;SDS011;54503;55.784;49.138;2022-07-12T12:40:56;17.50;;;7.95;;
67712;SDS011;54503;55.784;49.138;2022-07-12T12:46:01;14.87;;;7.50;;
67712;SDS011;54503;55.784;49.138;2022-07-12T12:51:20;11.60;;;6.70;;
67712;SDS011;54503;55.784;49.138;2022-07-12T12:56:40;15.98;;;7.10;;
67712;SDS011;54503;55.784;49.138;2022-07-12T13:01:59;10.85;;;7.00;;
67712;SDS011;54503;55.784;49.138;2022-07-12T13:07:19;16.97;;;6.77;;
67712;SDS011;54503;55.784;49.138;2022-07-12T13:12:24;14.75;;;6.30;;
67712;SDS011;54503;55.784;49.138;2022-07-12T13:17:29;12.37;;;5.92;;
67712;SDS011;54503;55.784;49.138;2022-07-12T13:22:49;19.23;;;8.80;;
67712;SDS011;54503;55.784;49.138;2022-07-12T13:28:23;15.13;;;8.10;;
67712;SDS011;54503;55.784;49.138;2022-07-12T13:33:28;16.77;;;8.03;;
67712;SDS011;54503;55.784;49.138;2022-07-12T13:38:48;15.75;;;8.30;;
67712;SDS011;54503;55.784;49.138;2022-07-12T13:44:07;17.30;;;9.33;;
67712;SDS011;54503;55.784;49.138;2022-07-12T13:49:26;15.40;;;7.10;;
67712;SDS011;54503;55.784;49.138;2022-07-12T13:54:45;20.88;;;6.95;;
67712;SDS011;54503;55.784;49.138;2022-07-12T13:59:51;11.85;;;6.40;;
67712;SDS011;54503;55.784;49.138;2022-07-12T14:04:57;13.37;;;7.97;;
67712;SDS011;54503;55.784;49.138;2022-07-12T14:10:16;11.30;;;6.33;;
67712;SDS011;54503;55.784;49.138;2022-07-12T14:15:23;16.12;;;8.68;;
67712;SDS011;54503;55.784;49.138;2022-07-12T14:20:42;14.50;;;7.78;;
67712;SDS011;54503;55.784;49.138;2022-07-12T14:25:49;15.07;;;8.13;;
67712;SDS011;54503;55.784;49.138;2022-07-12T14:30:55;14.65;;;8.18;;
67712;SDS011;54503;55.784;49.138;2022-07-12T14:36:14;17.32;;;6.25;;
67712;SDS011;54503;55.784;49.138;2022-07-12T14:41:20;14.17;;;8.07;;
67712;SDS011;54503;55.784;49.138;2022-07-12T14:46:39;14.50;;;7.90;;
67712;SDS011;54503;55.784;49.138;2022-07-12T14:51:46;15.88;;;7.72;;
67712;SDS011;54503;55.784;49.138;2022-07-12T14:57:04;18.05;;;10.55;;
67712;SDS011;54503;55.784;49.138;2022-07-12T15:02:10;16.48;;;10.15;;
67712;SDS011;54503;55.784;49.138;2022-07-12T15:07:31;13.70;;;6.92;;
67712;SDS011;54503;55.784;49.138;2022-07-12T15:12:37;9.30;;;5.27;;
67712;SDS011;54503;55.784;49.138;2022-07-12T15:17:43;12.68;;;7.62;;
67712;SDS011;54503;55.784;49.138;2022-07-12T15:23:02;18.92;;;8.95;;
67712;SDS011;54503;55.784;49.138;2022-07-12T15:28:21;20.13;;;8.10;;
67712;SDS011;54503;55.784;49.138;2022-07-12T15:33:40;21.45;;;10.93;;
67712;SDS011;54503;55.784;49.138;2022-07-12T15:38:46;28.30;;;19.17;;
67712;SDS011;54503;55.784;49.138;2022-07-12T15:43:52;20.17;;;12.33;;
67712;SDS011;54503;55.784;49.138;2022-07-12T15:48:57;27.05;;;16.40;;
67712;SDS011;54503;55.784;49.138;2022-07-12T15:54:15;25.75;;;17.25;;
67712;SDS011;54503;55.784;49.138;2022-07-12T15:59:21;23.42;;;13.03;;
67712;SDS011;54503;55.784;49.138;2022-07-12T16:04:40;25.23;;;13.15;;
67712;SDS011;54503;55.784;49.138;2022-07-12T16:09:59;22.43;;;13.30;;
67712;SDS011;54503;55.784;49.138;2022-07-12T16:15:18;24.50;;;14.73;;
67712;SDS011;54503;55.784;49.138;2022-07-12T16:20:24;23.27;;;12.78;;
67712;SDS011;54503;55.784;49.138;2022-07-12T16:25:30;435.17;;;27.53;;
67712;SDS011;54503;55.784;49.138;2022-07-12T16:30:36;40.38;;;6.65;;
67712;SDS011;54503;55.784;49.138;2022-07-12T16:35:56;30.25;;;5.03;;
67712;SDS011;54503;55.784;49.138;2022-07-12T16:41:15;21.23;;;4.40;;
67712;SDS011;54503;55.784;49.138;2022-07-12T16:46:20;16.75;;;4.65;;
67712;SDS011;54503;55.784;49.138;2022-07-12T16:51:40;15.58;;;3.80;;
67712;SDS011;54503;55.784;49.138;2022-07-12T16:57:01;89.70;;;6.03;;
67712;SDS011;54503;55.784;49.138;2022-07-12T17:02:06;11.68;;;3.92;;
67712;SDS011;54503;55.784;49.138;2022-07-12T17:07:26;18.07;;;4.13;;
67712;SDS011;54503;55.784;49.138;2022-07-12T17:12:46;9.35;;;3.65;;
67712;SDS011;54503;55.784;49.138;2022-07-12T17:18:05;6.22;;;3.60;;
67712;SDS011;54503;55.784;49.138;2022-07-12T17:23:11;10.13;;;3.83;;
67712;SDS011;54503;55.784;49.138;2022-07-12T17:28:16;11.12;;;3.87;;
67712;SDS011;54503;55.784;49.138;2022-07-12T17:33:22;13.25;;;3.85;;
67712;SDS011;54503;55.784;49.138;2022-07-12T17:38:41;6.73;;;3.90;;
67712;SDS011;54503;55.784;49.138;2022-07-12T17:44:00;8.85;;;3.90;;
67712;SDS011;54503;55.784;49.138;2022-07-12T17:49:06;8.98;;;4.00;;
67712;SDS011;54503;55.784;49.138;2022-07-12T17:59:38;10.93;;;4.03;;
67712;SDS011;54503;55.784;49.138;2022-07-12T18:04:43;8.97;;;3.90;;
67712;SDS011;54503;55.784;49.138;2022-07-12T18:09:49;15.58;;;4.25;;
67712;SDS011;54503;55.784;49.138;2022-07-12T18:15:08;7.80;;;3.77;;
67712;SDS011;54503;55.784;49.138;2022-07-12T18:20:28;7.93;;;4.20;;
67712;SDS011;54503;55.784;49.138;2022-07-12T18:25:47;11.10;;;4.12;;
67712;SDS011;54503;55.784;49.138;2022-07-12T18:31:13;15.08;;;4.92;;
67712;SDS011;54503;55.784;49.138;2022-07-12T18:36:19;9.27;;;4.30;;
67712;SDS011;54503;55.784;49.138;2022-07-12T18:41:24;10.90;;;4.75;;
67712;SDS011;54503;55.784;49.138;2022-07-12T18:46:46;7.55;;;3.90;;
67712;SDS011;54503;55.784;49.138;2022-07-12T18:52:05;7.50;;;4.12;;
67712;SDS011;54503;55.784;49.138;2022-07-12T18:57:12;8.80;;;4.53;;
67712;SDS011;54503;55.784;49.138;2022-07-12T19:02:33;8.37;;;4.70;;
67712;SDS011;54503;55.784;49.138;2022-07-12T19:07:38;12.15;;;4.87;;
67712;SDS011;54503;55.784;49.138;2022-07-12T19:12:45;12.60;;;5.17;;
67712;SDS011;54503;55.784;49.138;2022-07-12T19:18:17;9.58;;;4.80;;
67712;SDS011;54503;55.784;49.138;2022-07-12T19:23:23;9.97;;;5.07;;
67712;SDS011;54503;55.784;49.138;2022-07-12T19:28:42;6.40;;;4.40;;
67712;SDS011;54503;55.784;49.138;2022-07-12T19:33:48;10.38;;;4.85;;
67712;SDS011;54503;55.784;49.138;2022-07-12T19:39:15;10.23;;;4.25;;
67712;SDS011;54503;55.784;49.138;2022-07-12T19:44:21;8.38;;;4.72;;
67712;SDS011;54503;55.784;49.138;2022-07-12T19:49:40;9.80;;;4.87;;
67712;SDS011;54503;55.784;49.138;2022-07-12T19:54:59;9.60;;;4.70;;
67712;SDS011;54503;55.784;49.138;2022-07-12T20:00:18;9.80;;;4.90;;
67712;SDS011;54503;55.784;49.138;2022-07-12T20:05:37;7.83;;;4.47;;
67712;SDS011;54503;55.784;49.138;2022-07-12T20:10:45;9.03;;;4.60;;
67712;SDS011;54503;55.784;49.138;2022-07-12T20:15:50;8.35;;;4.55;;
67712;SDS011;54503;55.784;49.138;2022-07-12T20:20:55;6.47;;;4.03;;
67712;SDS011;54503;55.784;49.138;2022-07-12T20:26:14;7.58;;;4.30;;
67712;SDS011;54503;55.784;49.138;2022-07-12T20:31:19;11.63;;;4.77;;
67712;SDS011;54503;55.784;49.138;2022-07-12T20:36:25;14.68;;;4.58;;
67712;SDS011;54503;55.784;49.138;2022-07-12T20:41:55;8.60;;;4.50;;
67712;SDS011;54503;55.784;49.138;2022-07-12T20:47:01;7.10;;;4.37;;
67712;SDS011;54503;55.784;49.138;2022-07-12T20:52:06;9.30;;;4.47;;
67712;SDS011;54503;55.784;49.138;2022-07-12T20:57:26;7.15;;;4.10;;
67712;SDS011;54503;55.784;49.138;2022-07-12T21:02:45;7.15;;;4.83;;
67712;SDS011;54503;55.784;49.138;2022-07-12T21:08:04;9.08;;;4.62;;
67712;SDS011;54503;55.784;49.138;2022-07-12T21:13:10;8.03;;;4.67;;
67712;SDS011;54503;55.784;49.138;2022-07-12T21:18:16;7.08;;;4.67;;
67712;SDS011;54503;55.784;49.138;2022-07-12T21:23:23;8.13;;;4.65;;
67712;SDS011;54503;55.784;49.138;2022-07-12T21:28:28;8.43;;;4.73;;
67712;SDS011;54503;55.784;49.138;2022-07-12T21:33:48;9.08;;;4.67;;
67712;SDS011;54503;55.784;49.138;2022-07-12T21:39:08;6.70;;;4.53;;
67712;SDS011;54503;55.784;49.138;2022-07-12T21:44:14;11.00;;;4.20;;
67712;SDS011;54503;55.784;49.138;2022-07-12T21:49:19;15.60;;;4.95;;
67712;SDS011;54503;55.784;49.138;2022-07-12T21:54:27;12.82;;;4.47;;
67712;SDS011;54503;55.784;49.138;2022-07-12T21:59:58;9.93;;;4.50;;
67712;SDS011;54503;55.784;49.138;2022-07-12T22:05:04;9.00;;;4.40;;
67712;SDS011;54503;55.784;49.138;2022-07-12T22:10:10;7.20;;;4.40;;
67712;SDS011;54503;55.784;49.138;2022-07-12T22:15:16;6.80;;;4.23;;
67712;SDS011;54503;55.784;49.138;2022-07-12T22:20:35;11.45;;;6.70;;
67712;SDS011;54503;55.784;49.138;2022-07-12T22:25:54;9.25;;;4.58;;
67712;SDS011;54503;55.784;49.138;2022-07-12T22:31:01;9.03;;;4.53;;
67712;SDS011;54503;55.784;49.138;2022-07-12T22:36:33;9.90;;;4.70;;
67712;SDS011;54503;55.784;49.138;2022-07-12T22:41:39;8.60;;;4.35;;
67712;SDS011;54503;55.784;49.138;2022-07-12T22:46:44;10.40;;;4.30;;
67712;SDS011;54503;55.784;49.138;2022-07-12T22:52:04;8.23;;;4.40;;
67712;SDS011;54503;55.784;49.138;2022-07-12T22:57:23;6.33;;;4.47;;
67712;SDS011;54503;55.784;49.138;2022-07-12T23:02:42;7.05;;;4.47;;
67712;SDS011;54503;55.784;49.138;2022-07-12T23:07:48;8.05;;;4.67;;
67712;SDS011;54503;55.784;49.138;2022-07-12T23:12:53;8.00;;;5.10;;
67712;SDS011;54503;55.784;49.138;2022-07-12T23:18:00;7.60;;;4.40;;
67712;SDS011;54503;55.784;49.138;2022-07-12T23:23:14;7.25;;;4.75;;
67712;SDS011;54503;55.784;49.138;2022-07-12T23:28:34;9.73;;;4.50;;
67712;SDS011;54503;55.784;49.138;2022-07-12T23:33:53;6.57;;;4.50;;
67712;SDS011;54503;55.784;49.138;2022-07-12T23:38:58;9.75;;;5.75;;
67712;SDS011;54503;55.784;49.138;2022-07-12T23:44:04;6.95;;;4.70;;
67712;SDS011;54503;55.784;49.138;2022-07-12T23:49:10;8.15;;;4.30;;
67712;SDS011;54503;55.784;49.138;2022-07-12T23:54:29;8.00;;;4.60;;
67712;SDS011;54503;55.784;49.138;2022-07-12T23:59:35;9.18;;;5.22;;
